createdAt,value
2022-11-03T00:02:11.073Z,100924.72
2022-11-03T00:04:39.040Z,100918.88
2022-11-03T00:07:06.671Z,100921.00
2022-11-03T00:09:34.720Z,100916.69
2022-11-03T00:12:03.024Z,100914.22
2022-11-03T00:14:31.351Z,100925.81
2022-11-03T00:16:59.384Z,100919.88
2022-11-03T00:19:27.103Z,100920.03
2022-11-03T00:21:55.056Z,100926.16
2022-11-03T00:24:23.260Z,100928.97
2022-11-03T00:26:51.257Z,100928.00
2022-11-03T00:29:19.054Z,100920.44
2022-11-03T00:31:47.094Z,100921.41
2022-11-03T00:34:14.793Z,100912.75
2022-11-03T00:36:44.660Z,100922.41
2022-11-03T00:39:13.070Z,100919.91
2022-11-03T00:41:41.222Z,100920.91
2022-11-03T00:44:10.684Z,100916.75
2022-11-03T00:46:38.844Z,100920.25
2022-11-03T00:49:07.130Z,100920.34
2022-11-03T00:51:37.859Z,100924.88
2022-11-03T00:54:07.147Z,100928.34
2022-11-03T00:56:40.321Z,100931.78
2022-11-03T00:59:09.742Z,100933.63
2022-11-03T01:01:46.765Z,100939.84
2022-11-03T01:04:38.104Z,100941.41
2022-11-03T01:07:06.488Z,100942.47
2022-11-03T01:09:38.429Z,100950.31
2022-11-03T01:12:10.980Z,100948.75
2022-11-03T01:14:47.667Z,100956.63
2022-11-03T01:17:25.491Z,100943.44
2022-11-03T01:19:54.444Z,100955.69
2022-11-03T01:22:23.660Z,100953.97
2022-11-03T01:24:52.973Z,100952.44
2022-11-03T01:27:23.153Z,100943.03
2022-11-03T01:29:50.902Z,100950.69
2022-11-03T01:32:18.874Z,100945.59
2022-11-03T01:34:46.571Z,100940.56
2022-11-03T01:37:14.534Z,100946.59
2022-11-03T01:39:42.164Z,100950.88
2022-11-03T01:42:13.386Z,100952.78
2022-11-03T01:44:47.539Z,100952.84
2022-11-03T01:47:29.406Z,100951.75
2022-11-03T01:50:06.240Z,100954.56
2022-11-03T01:52:41.062Z,100949.34
2022-11-03T01:55:13.880Z,100967.59
2022-11-03T01:57:55.436Z,100963.28
2022-11-03T02:00:23.439Z,100967.72
2022-11-03T02:02:51.741Z,100963.47
2022-11-03T02:05:21.490Z,100963.53
2022-11-03T02:07:58.253Z,100963.53
2022-11-03T02:10:26.148Z,100961.06
2022-11-03T02:12:54.369Z,100962.66
2022-11-03T02:15:23.521Z,100963.50
2022-11-03T02:17:54.294Z,100959.22
2022-11-03T02:20:30.935Z,100960.06
2022-11-03T02:23:12.401Z,100961.88
2022-11-03T02:25:48.930Z,100960.28
2022-11-03T02:28:23.043Z,100967.28
2022-11-03T02:30:53.856Z,100961.22
2022-11-03T02:33:30.532Z,100960.34
2022-11-03T02:36:18.405Z,100963.00
2022-11-03T02:39:01.302Z,100973.41
2022-11-03T02:41:31.814Z,100988.25
2022-11-03T02:44:01.638Z,100982.25
2022-11-03T02:46:32.782Z,100975.34
2022-11-03T02:49:00.672Z,100983.22
2022-11-03T02:51:28.422Z,100978.03
2022-11-03T02:54:03.894Z,100979.88
2022-11-03T02:56:35.314Z,100978.09
2022-11-03T02:59:10.097Z,100992.03
2022-11-03T03:01:49.090Z,100986.81
2022-11-03T03:04:41.207Z,100987.75
2022-11-03T03:07:27.173Z,100993.84
2022-11-03T03:10:29.494Z,100993.81
2022-11-03T03:12:59.105Z,100997.34
2022-11-03T03:15:45.998Z,100993.00
2022-11-03T03:18:16.663Z,100994.81
2022-11-03T03:21:07.429Z,100999.19
2022-11-03T03:23:40.257Z,101002.69
2022-11-03T03:26:30.210Z,101005.25
2022-11-03T03:29:24.979Z,101008.81
2022-11-03T03:31:58.893Z,101002.84
2022-11-03T03:34:36.225Z,100995.91
2022-11-03T03:37:07.716Z,100999.34
2022-11-03T03:39:39.933Z,100999.41
2022-11-03T03:42:10.751Z,100997.72
2022-11-03T03:44:41.431Z,100997.78
2022-11-03T03:47:38.245Z,101003.00
2022-11-03T03:50:06.661Z,101001.28
2022-11-03T03:52:36.087Z,100999.53
2022-11-03T03:55:04.402Z,100999.53
2022-11-03T03:57:32.782Z,101008.22
2022-11-03T04:00:00.450Z,101001.34
2022-11-03T04:02:28.301Z,101001.34
2022-11-03T04:04:56.370Z,101006.53
2022-11-03T04:07:43.817Z,101016.91
2022-11-03T04:10:11.998Z,101016.06
2022-11-03T04:13:02.243Z,101011.72
2022-11-03T04:15:50.085Z,101013.47
2022-11-03T04:18:37.877Z,101017.78
2022-11-03T04:21:25.113Z,101019.53
2022-11-03T04:23:54.801Z,101022.16
2022-11-03T04:26:23.107Z,101029.91
2022-11-03T04:28:52.889Z,101022.16
2022-11-03T04:31:21.299Z,101022.09
2022-11-03T04:33:49.275Z,101020.44
2022-11-03T04:36:22.929Z,101022.19
2022-11-03T04:38:51.458Z,101027.41
2022-11-03T04:41:25.887Z,101023.09
2022-11-03T04:43:54.187Z,101019.66
2022-11-03T04:46:29.479Z,101024.00
2022-11-03T04:49:00.778Z,101018.78
2022-11-03T04:51:34.858Z,101021.41
2022-11-03T04:54:13.320Z,101022.25
2022-11-03T04:56:41.459Z,101022.25
2022-11-03T04:59:12.852Z,101017.94
2022-11-03T05:01:41.199Z,101028.31
2022-11-03T05:04:18.090Z,101029.19
2022-11-03T05:06:52.573Z,101029.19
2022-11-03T05:09:26.933Z,101027.44
2022-11-03T05:11:54.729Z,101022.28
2022-11-03T05:14:30.040Z,101025.75
2022-11-03T05:16:59.020Z,101027.44
2022-11-03T05:19:37.741Z,101032.63
2022-11-03T05:22:13.088Z,101033.50
2022-11-03T05:24:41.160Z,101032.63
2022-11-03T05:27:16.609Z,101032.66
2022-11-03T05:29:45.611Z,101036.09
2022-11-03T05:32:19.835Z,101039.56
2022-11-03T05:34:50.885Z,101036.97
2022-11-03T05:37:35.363Z,101032.66
2022-11-03T05:40:17.542Z,101043.88
2022-11-03T05:42:50.445Z,101047.34
2022-11-03T05:45:23.587Z,101043.88
2022-11-03T05:47:55.314Z,101043.88
2022-11-03T05:50:33.749Z,101044.75
2022-11-03T05:53:23.743Z,101043.03
2022-11-03T05:55:52.062Z,101044.75
2022-11-03T05:58:30.086Z,101041.28
2022-11-03T06:00:59.211Z,101044.75
2022-11-03T06:03:30.872Z,101046.47
2022-11-03T06:06:02.037Z,101038.66
2022-11-03T06:08:38.932Z,101041.25
2022-11-03T06:11:19.883Z,101041.25
2022-11-03T06:13:47.574Z,101043.84
2022-11-03T06:16:40.182Z,101047.22
2022-11-03T06:19:42.716Z,101049.63
2022-11-03T06:22:24.529Z,101054.63
2022-11-03T06:24:57.631Z,101046.66
2022-11-03T06:27:30.744Z,101054.41
2022-11-03T06:30:02.792Z,101060.41
2022-11-03T06:32:33.200Z,101062.06
2022-11-03T06:35:00.908Z,101062.97
2022-11-03T06:37:32.561Z,101055.97
2022-11-03T06:40:24.852Z,101064.53
2022-11-03T06:42:56.366Z,101061.06
2022-11-03T06:45:25.897Z,101065.38
2022-11-03T06:47:54.617Z,101066.22
2022-11-03T06:50:44.751Z,101073.88
2022-11-03T06:53:18.581Z,101067.72
2022-11-03T06:55:47.411Z,101067.66
2022-11-03T06:58:32.430Z,101071.88
2022-11-03T07:01:04.357Z,101067.44
2022-11-03T07:03:35.343Z,101063.72
2022-11-03T07:06:19.237Z,101063.59
2022-11-03T07:08:50.926Z,101072.25
2022-11-03T07:11:26.153Z,101077.44
2022-11-03T07:14:10.373Z,101075.47
2022-11-03T07:16:38.280Z,101068.34
2022-11-03T07:19:15.003Z,101068.25
2022-11-03T07:21:49.136Z,101063.94
2022-11-03T07:24:27.598Z,101067.28
2022-11-03T07:27:13.239Z,101070.56
2022-11-03T07:29:43.021Z,101067.72
2022-11-03T07:32:20.275Z,101060.56
2022-11-03T07:34:49.602Z,101061.56
2022-11-03T07:37:26.276Z,101064.88
2022-11-03T07:39:54.125Z,101058.63
2022-11-03T07:42:27.355Z,101060.09
2022-11-03T07:45:00.884Z,101063.97
2022-11-03T07:47:30.014Z,101049.16
2022-11-03T07:49:57.705Z,101061.59
2022-11-03T07:52:27.102Z,101060.84
2022-11-03T07:54:59.261Z,101065.44
2022-11-03T07:57:30.651Z,101064.03
2022-11-03T08:00:08.936Z,101056.47
2022-11-03T08:02:49.484Z,101063.31
2022-11-03T08:05:17.285Z,101062.88
2022-11-03T08:07:45.289Z,101065.38
2022-11-03T08:10:13.831Z,101063.91
2022-11-03T08:12:41.827Z,101067.34
2022-11-03T08:15:10.263Z,101063.69
2022-11-03T08:17:38.266Z,101062.53
2022-11-03T08:20:06.342Z,101058.28
2022-11-03T08:22:34.498Z,101058.44
2022-11-03T08:25:02.213Z,101059.41
2022-11-03T08:27:30.214Z,101057.94
2022-11-03T08:29:57.990Z,101071.97
2022-11-03T08:32:26.058Z,101069.31
2022-11-03T08:34:53.671Z,101070.25
2022-11-03T08:37:21.759Z,101071.53
2022-11-03T08:39:49.457Z,101068.03
2022-11-03T08:42:17.451Z,101063.09
2022-11-03T08:44:45.202Z,101068.91
2022-11-03T08:47:13.242Z,101063.22
2022-11-03T08:49:41.440Z,101062.22
2022-11-03T08:52:09.340Z,101067.09
2022-11-03T08:54:37.037Z,101063.94
2022-11-03T08:57:05.269Z,101068.69
2022-11-03T08:59:33.051Z,101067.31
2022-11-03T09:02:01.138Z,101063.13
2022-11-03T09:04:28.985Z,101065.28
2022-11-03T09:06:57.019Z,101069.44
2022-11-03T09:12:12.722Z,101069.16
2022-11-03T09:14:40.460Z,101068.28
2022-11-03T09:17:08.235Z,101060.59
2022-11-03T09:19:36.276Z,101064.72
2022-11-03T09:22:04.213Z,101064.53
2022-11-03T09:24:31.920Z,101062.72
2022-11-03T09:27:02.229Z,101062.00
2022-11-03T09:29:51.720Z,101069.63
2022-11-03T09:32:23.033Z,101056.63
2022-11-03T09:34:51.528Z,101056.91
2022-11-03T09:37:19.670Z,101057.38
2022-11-03T09:39:47.290Z,101057.63
2022-11-03T09:42:17.253Z,101058.81
2022-11-03T09:44:46.999Z,101057.28
2022-11-03T09:47:25.140Z,101065.50
2022-11-03T09:49:53.256Z,101061.03
2022-11-03T09:52:24.304Z,101059.28
2022-11-03T09:54:55.694Z,101047.38
2022-11-03T09:57:26.371Z,101042.53
2022-11-03T09:59:54.615Z,101046.69
2022-11-03T10:02:33.067Z,101023.34
2022-11-03T10:05:06.959Z,101022.75
2022-11-03T10:07:38.260Z,101026.56
2022-11-03T10:10:06.457Z,101016.88
2022-11-03T10:12:37.958Z,101013.72
2022-11-03T10:15:07.391Z,101011.09
2022-11-03T10:17:35.379Z,101005.50
2022-11-03T10:20:06.993Z,100998.41
2022-11-03T10:22:38.445Z,100999.41
2022-11-03T10:25:32.979Z,100995.84
2022-11-03T10:28:14.550Z,100995.47
2022-11-03T10:31:12.198Z,101001.75
2022-11-03T10:33:51.959Z,100994.56
2022-11-03T10:36:20.207Z,100996.47
2022-11-03T10:38:48.587Z,100995.22
2022-11-03T10:41:17.476Z,100994.38
2022-11-03T10:43:59.486Z,100983.75
2022-11-03T10:49:18.568Z,100992.53
2022-11-03T10:51:51.125Z,100988.69
2022-11-03T10:54:23.917Z,100984.78
2022-11-03T10:56:52.740Z,100988.78
2022-11-03T10:59:31.888Z,100979.84
2022-11-03T11:02:01.237Z,100983.16
2022-11-03T11:04:32.361Z,100972.97
2022-11-03T11:07:00.401Z,100967.38
2022-11-03T11:09:29.135Z,100968.91
2022-11-03T11:12:02.439Z,100963.75
2022-11-03T11:14:30.197Z,100969.72
2022-11-03T11:16:59.916Z,100962.84
2022-11-03T11:19:29.430Z,100954.38
2022-11-03T11:21:57.324Z,100956.91
2022-11-03T11:24:43.475Z,100959.66
2022-11-03T11:27:31.924Z,100961.56
2022-11-03T11:30:00.878Z,100947.78
2022-11-03T11:32:46.994Z,100943.03
2022-11-03T11:35:25.027Z,100940.19
2022-11-03T11:37:54.291Z,100931.25
2022-11-03T11:40:24.711Z,100928.72
2022-11-03T11:43:11.176Z,100928.06
2022-11-03T11:46:16.690Z,100931.09
2022-11-03T11:48:44.325Z,100923.56
2022-11-03T11:51:12.672Z,100922.03
2022-11-03T11:53:44.834Z,100917.50
2022-11-03T11:56:16.592Z,100913.22
2022-11-03T11:58:55.470Z,100912.59
2022-11-03T12:01:37.911Z,100906.13
2022-11-03T12:04:31.558Z,100898.50
2022-11-03T12:06:59.983Z,100897.44
2022-11-03T12:09:29.075Z,100904.03
2022-11-03T12:12:07.059Z,100893.75
2022-11-03T12:14:38.982Z,100899.28
2022-11-03T12:17:19.192Z,100902.44
2022-11-03T12:19:54.420Z,100895.41
2022-11-03T12:22:26.023Z,100896.78
2022-11-03T12:24:55.625Z,100888.38
2022-11-03T12:27:26.051Z,100894.25
2022-11-03T12:29:55.468Z,100888.97
2022-11-03T12:32:33.085Z,100885.66
2022-11-03T12:35:02.884Z,100882.00
2022-11-03T12:37:30.852Z,100875.88
2022-11-03T12:39:58.510Z,100885.31
2022-11-03T12:42:26.326Z,100877.41
2022-11-03T12:44:54.533Z,100873.63
2022-11-03T12:47:22.301Z,100868.59
2022-11-03T12:49:50.000Z,100865.22
2022-11-03T12:52:17.976Z,100865.09
2022-11-03T12:54:45.698Z,100864.00
2022-11-03T12:57:14.014Z,100870.00
2022-11-03T12:59:41.798Z,100868.75
2022-11-03T13:02:11.913Z,100867.22
2022-11-03T13:04:39.773Z,100869.75
2022-11-03T13:07:07.725Z,100862.75
2022-11-03T13:09:36.074Z,100865.38
2022-11-03T13:12:22.712Z,100860.78
2022-11-03T13:14:50.389Z,100863.81
2022-11-03T13:17:18.369Z,100861.97
2022-11-03T13:19:46.006Z,100870.13
2022-11-03T13:22:13.947Z,100857.97
2022-11-03T13:24:41.673Z,100856.63
2022-11-03T13:27:10.124Z,100850.66
2022-11-03T13:29:37.908Z,100850.84
2022-11-03T13:32:06.311Z,100860.13
2022-11-03T13:34:34.049Z,100859.34
2022-11-03T13:37:02.090Z,100857.75
2022-11-03T13:39:29.782Z,100856.50
2022-11-03T13:41:57.823Z,100848.66
2022-11-03T13:44:25.480Z,100844.00
2022-11-03T13:46:54.151Z,100840.69
2022-11-03T13:49:59.278Z,100841.38
2022-11-03T13:52:10.557Z,100832.81
2022-11-03T14:00:16.844Z,100835.78
2022-11-03T14:05:32.592Z,100821.78
2022-11-03T14:08:00.516Z,100823.75
2022-11-03T14:10:28.199Z,100815.84
2022-11-03T14:12:56.234Z,100820.44
2022-11-03T14:15:23.866Z,100824.69
2022-11-03T14:17:51.914Z,100815.00
2022-11-03T14:20:19.726Z,100819.00
2022-11-03T14:22:47.777Z,100821.38
2022-11-03T14:25:15.610Z,100821.91
2022-11-03T14:27:43.602Z,100824.97
2022-11-03T14:30:12.368Z,100821.03
2022-11-03T14:32:40.470Z,100821.28
2022-11-03T14:35:08.629Z,100817.34
2022-11-03T14:37:36.744Z,100823.72
2022-11-03T14:40:05.575Z,100825.72
2022-11-03T14:42:33.576Z,100813.91
2022-11-03T14:45:01.192Z,100811.72
2022-11-03T14:47:31.464Z,100815.78
2022-11-03T14:49:59.567Z,100813.47
2022-11-03T14:52:27.246Z,100809.50
2022-11-03T14:54:55.152Z,100810.06
2022-11-03T14:57:22.847Z,100802.94
2022-11-03T14:59:53.521Z,100795.72
2022-11-03T15:02:21.609Z,100800.72
2022-11-03T15:04:49.666Z,100798.69
2022-11-03T15:07:17.337Z,100798.25
2022-11-03T15:09:45.027Z,100795.16
2022-11-03T15:12:12.970Z,100791.31
2022-11-03T15:14:40.652Z,100791.63
2022-11-03T15:17:08.313Z,100798.13
2022-11-03T15:19:36.394Z,100795.72
2022-11-03T15:22:04.054Z,100791.81
2022-11-03T15:27:19.868Z,100801.09
2022-11-03T15:29:47.846Z,100802.88
2022-11-03T15:32:15.564Z,100801.38
2022-11-03T15:34:43.505Z,100798.13
2022-11-03T15:37:11.422Z,100793.00
2022-11-03T15:39:39.355Z,100787.16
2022-11-03T15:42:07.717Z,100777.78
2022-11-03T15:44:35.725Z,100784.78
2022-11-03T15:47:03.407Z,100781.44
2022-11-03T15:49:31.357Z,100775.56
2022-11-03T15:51:59.145Z,100767.00
2022-11-03T15:54:27.160Z,100769.84
2022-11-03T15:56:54.837Z,100765.66
2022-11-03T15:59:22.785Z,100760.59
2022-11-03T16:01:50.580Z,100761.47
2022-11-03T16:04:18.788Z,100750.19
2022-11-03T16:07:06.835Z,100752.91
2022-11-03T16:09:34.583Z,100751.50
2022-11-03T16:12:02.760Z,100745.53
2022-11-03T16:14:30.788Z,100753.41
2022-11-03T16:16:58.807Z,100756.97
2022-11-03T16:19:26.678Z,100749.38
2022-11-03T16:21:54.595Z,100750.41
2022-11-03T16:24:22.733Z,100753.16
2022-11-03T16:26:53.338Z,100743.78
2022-11-03T16:29:21.009Z,100742.16
2022-11-03T16:31:50.330Z,100754.34
2022-11-03T16:34:18.379Z,100749.25
2022-11-03T16:36:46.255Z,100744.09
2022-11-03T16:39:13.949Z,100740.59
2022-11-03T16:41:41.867Z,100744.09
2022-11-03T16:44:09.584Z,100730.19
2022-11-03T16:46:37.645Z,100726.78
2022-11-03T16:49:05.378Z,100732.97
2022-11-03T16:51:33.315Z,100728.75
2022-11-03T16:54:01.093Z,100728.66
2022-11-03T16:56:29.025Z,100730.56
2022-11-03T16:58:56.724Z,100731.34
2022-11-03T17:01:24.658Z,100733.78
2022-11-03T17:03:52.571Z,100726.88
2022-11-03T17:06:20.583Z,100728.44
2022-11-03T17:08:53.293Z,100724.28
2022-11-03T17:11:36.235Z,100725.50
2022-11-03T17:14:06.253Z,100723.97
2022-11-03T17:16:34.760Z,100718.09
2022-11-03T17:19:02.547Z,100720.53
2022-11-03T17:21:30.848Z,100701.19
2022-11-03T17:23:59.952Z,100696.06
2022-11-03T17:26:53.046Z,100701.63
2022-11-03T17:29:28.790Z,100696.44
2022-11-03T17:31:57.239Z,100686.09
2022-11-03T17:34:25.840Z,100694.78
2022-11-03T17:36:54.063Z,100685.34
2022-11-03T17:39:30.246Z,100679.19
2022-11-03T17:42:24.816Z,100674.94
2022-11-03T17:44:55.489Z,100656.50
2022-11-03T17:47:24.464Z,100646.00
2022-11-03T17:49:52.245Z,100651.38
2022-11-03T17:52:28.199Z,100644.41
2022-11-03T17:55:00.624Z,100645.88
2022-11-03T17:57:28.963Z,100642.09
2022-11-03T17:59:59.418Z,100645.72
2022-11-03T18:02:30.825Z,100645.94
2022-11-03T18:05:20.242Z,100639.91
2022-11-03T18:07:50.408Z,100650.53
2022-11-03T18:10:18.060Z,100648.06
2022-11-03T18:13:07.564Z,100649.94
2022-11-03T18:15:39.744Z,100646.63
2022-11-03T18:18:23.067Z,100655.31
2022-11-03T18:20:53.834Z,100645.84
2022-11-03T18:23:27.420Z,100646.66
2022-11-03T18:25:55.520Z,100643.16
2022-11-03T18:28:23.800Z,100644.81
2022-11-03T18:30:54.996Z,100649.13
2022-11-03T18:33:34.476Z,100641.44
2022-11-03T18:36:07.060Z,100646.72
2022-11-03T18:38:37.284Z,100651.09
2022-11-03T18:41:25.051Z,100635.50
2022-11-03T18:43:53.040Z,100639.97
2022-11-03T18:46:20.861Z,100632.00
2022-11-03T18:48:48.923Z,100632.88
2022-11-03T18:51:16.803Z,100619.03
2022-11-03T18:53:45.105Z,100619.94
2022-11-03T18:56:16.275Z,100612.91
2022-11-03T18:58:44.589Z,100615.59
2022-11-03T19:01:22.451Z,100613.81
2022-11-03T19:03:50.941Z,100607.84
2022-11-03T19:06:19.027Z,100612.16
2022-11-03T19:08:47.703Z,100606.97
2022-11-03T19:11:15.636Z,100606.16
2022-11-03T19:13:46.513Z,100598.31
2022-11-03T19:16:23.709Z,100600.06
2022-11-03T19:18:54.683Z,100595.78
2022-11-03T19:21:24.105Z,100598.34
2022-11-03T19:23:58.013Z,100592.34
2022-11-03T19:26:29.339Z,100595.78
2022-11-03T19:29:02.024Z,100582.81
2022-11-03T19:31:48.834Z,100583.75
2022-11-03T19:34:23.859Z,100571.63
2022-11-03T19:36:52.581Z,100567.34
2022-11-03T19:39:23.812Z,100576.84
2022-11-03T19:42:10.257Z,100570.00
2022-11-03T19:44:38.611Z,100562.25
2022-11-03T19:47:06.809Z,100555.38
2022-11-03T19:49:35.137Z,100562.31
2022-11-03T19:52:02.897Z,100562.25
2022-11-03T19:54:30.856Z,100555.31
2022-11-03T19:56:58.540Z,100560.50
2022-11-03T19:59:26.520Z,100560.50
2022-11-03T20:01:54.540Z,100567.34
2022-11-03T20:04:22.635Z,100567.34
2022-11-03T20:06:50.337Z,100562.00
2022-11-03T20:09:19.064Z,100553.34
2022-11-03T20:11:47.045Z,100559.38
2022-11-03T20:14:26.104Z,100537.69
2022-11-03T20:17:14.547Z,100541.03
2022-11-03T20:19:42.645Z,100541.03
2022-11-03T20:22:16.942Z,100534.88
2022-11-03T20:24:46.605Z,100540.94
2022-11-03T20:27:21.495Z,100536.59
2022-11-03T20:29:49.727Z,100529.47
2022-11-03T20:32:17.423Z,100529.59
2022-11-03T20:34:46.669Z,100523.50
2022-11-03T20:37:20.514Z,100520.09
2022-11-03T20:39:49.010Z,100521.72
2022-11-03T20:42:23.523Z,100518.25
2022-11-03T20:44:51.858Z,100506.31
2022-11-03T20:47:20.041Z,100506.84
2022-11-03T20:49:48.500Z,100507.78
2022-11-03T20:52:16.941Z,100502.41
2022-11-03T20:54:44.726Z,100495.66
2022-11-03T20:57:13.706Z,100485.34
2022-11-03T20:59:41.625Z,100492.22
2022-11-03T21:02:14.047Z,100482.69
2022-11-03T21:04:43.308Z,100476.56
2022-11-03T21:07:13.557Z,100476.44
2022-11-03T21:09:41.564Z,100473.66
2022-11-03T21:12:13.356Z,100472.91
2022-11-03T21:15:02.129Z,100459.16
2022-11-03T21:17:48.759Z,100453.00
2022-11-03T21:20:16.497Z,100448.69
2022-11-03T21:22:53.851Z,100438.34
2022-11-03T21:25:24.091Z,100439.31
2022-11-03T21:27:54.029Z,100433.19
2022-11-03T21:30:22.436Z,100433.38
2022-11-03T21:32:50.501Z,100426.41
2022-11-03T21:35:21.884Z,100422.88
2022-11-03T21:37:50.044Z,100421.22
2022-11-03T21:40:18.083Z,100411.69
2022-11-03T21:43:04.725Z,100412.66
2022-11-03T21:45:32.444Z,100404.09
2022-11-03T21:48:19.392Z,100400.66
2022-11-03T21:50:47.367Z,100402.34
2022-11-03T21:53:15.525Z,100403.81
2022-11-03T21:55:43.263Z,100405.66
2022-11-03T21:58:11.217Z,100409.25
2022-11-03T22:00:38.896Z,100405.84
2022-11-03T22:03:07.034Z,100400.66
2022-11-03T22:05:35.015Z,100395.44
2022-11-03T22:08:03.042Z,100391.22
2022-11-03T22:10:30.751Z,100400.72
2022-11-03T22:12:58.797Z,100389.94
2022-11-03T22:15:45.277Z,100397.91
2022-11-03T22:18:13.444Z,100387.38
2022-11-03T22:21:00.031Z,100371.84
2022-11-03T22:23:46.850Z,100376.13
2022-11-03T22:26:35.353Z,100371.63
2022-11-03T22:29:21.927Z,100364.81
2022-11-03T22:31:49.603Z,100361.28
2022-11-03T22:34:35.978Z,100363.00
2022-11-03T22:37:03.685Z,100362.22
2022-11-03T22:39:50.392Z,100363.88
2022-11-03T22:42:36.946Z,100362.34
2022-11-03T22:45:23.848Z,100354.69
2022-11-03T22:47:57.151Z,100355.56
2022-11-03T22:50:25.470Z,100347.09
2022-11-03T22:52:53.152Z,100359.28
2022-11-03T22:55:21.122Z,100359.28
2022-11-03T22:57:49.229Z,100354.97
2022-11-03T23:00:18.457Z,100347.13
2022-11-03T23:02:46.080Z,100347.16
2022-11-03T23:05:14.002Z,100347.38
2022-11-03T23:07:41.892Z,100349.13
2022-11-03T23:10:10.073Z,100349.91
2022-11-03T23:12:37.729Z,100354.06
2022-11-03T23:15:24.834Z,100355.91
2022-11-03T23:18:11.300Z,100345.59
2022-11-03T23:20:57.697Z,100343.84
2022-11-03T23:23:44.249Z,100332.56
2022-11-03T23:26:12.134Z,100333.47
2022-11-03T23:28:40.450Z,100326.63
2022-11-03T23:31:08.826Z,100324.97
2022-11-03T23:33:37.088Z,100322.22
2022-11-03T23:36:10.476Z,100335.22
2022-11-03T23:38:39.623Z,100320.59
2022-11-03T23:41:09.786Z,100323.25
2022-11-03T23:43:37.719Z,100309.44
2022-11-03T23:46:24.631Z,100314.59
2022-11-03T23:48:53.319Z,100304.16
2022-11-03T23:51:24.159Z,100303.25
2022-11-03T23:53:53.222Z,100288.44
2022-11-03T23:56:42.276Z,100293.78
2022-11-03T23:59:12.057Z,100295.50
